Time;durP1;ratioP1;P1;durP2;ratioP2;P2;SDS_P1;SDS_P2;PMS_P1;PMS_P2;Temp;Humidity;BMP_temperature;BMP_pressure;BME280_temperature;BME280_humidity;BME280_pressure;Samples;Min_cycle;Max_cycle;Signal;HPM_P1;HPM_P2
2022/05/16 00:02:15;;;;;;;2.60;1.10;;;20.50;74.60;;;;;;5055573;28;20501;-81
2022/05/16 00:04:46;;;;;;;2.25;1.20;;;20.40;74.50;;;;;;5054312;28;20037;-81
2022/05/16 00:07:14;;;;;;;2.38;1.10;;;20.40;74.60;;;;;;5035815;28;20049;-81
2022/05/16 00:09:42;;;;;;;2.40;1.15;;;20.40;74.60;;;;;;5036955;28;20095;-81
2022/05/16 00:12:10;;;;;;;1.92;1.13;;;20.40;74.60;;;;;;5034213;28;20057;-81
2022/05/16 00:14:39;;;;;;;3.55;1.10;;;20.40;74.60;;;;;;5031677;28;20049;-81
2022/05/16 00:17:08;;;;;;;2.25;1.20;;;20.40;74.60;;;;;;5039725;28;20693;-80
2022/05/16 00:19:37;;;;;;;2.25;1.10;;;20.40;74.50;;;;;;5032256;28;20037;-80
2022/05/16 00:22:05;;;;;;;2.60;1.15;;;20.40;74.50;;;;;;5032981;28;20052;-81
2022/05/16 00:24:32;;;;;;;2.90;1.10;;;20.40;74.40;;;;;;5031915;28;20120;-81
2022/05/16 00:27:00;;;;;;;2.70;1.23;;;20.40;74.40;;;;;;5039816;28;20044;-81
2022/05/16 00:29:30;;;;;;;3.08;1.17;;;20.40;74.30;;;;;;5043408;28;20072;-80
2022/05/16 00:31:57;;;;;;;2.70;1.30;;;20.40;74.30;;;;;;5042458;28;20040;-81
2022/05/16 00:34:24;;;;;;;1.73;0.98;;;20.40;74.30;;;;;;5035647;28;20037;-81
2022/05/16 00:36:52;;;;;;;2.70;1.30;;;20.40;74.20;;;;;;5038541;28;20068;-81
2022/05/16 00:39:21;;;;;;;2.58;1.20;;;20.40;74.20;;;;;;5042232;28;20037;-80
2022/05/16 00:41:51;;;;;;;2.97;1.27;;;20.40;75.00;;;;;;5021581;28;20064;-81
2022/05/16 00:44:22;;;;;;;2.25;1.25;;;20.40;74.90;;;;;;5040875;28;20045;-81
2022/05/16 00:46:50;;;;;;;2.72;1.23;;;20.40;74.30;;;;;;5045099;28;20040;-81
2022/05/16 00:49:21;;;;;;;2.40;1.13;;;20.30;74.10;;;;;;5040050;28;20049;-81
2022/05/16 00:51:53;;;;;;;4.05;1.45;;;20.40;74.30;;;;;;5040712;28;20527;-81
2022/05/16 00:54:22;;;;;;;;;;;20.40;74.10;;;;;;5042348;28;20048;-80
2022/05/16 00:56:52;;;;;;;2.35;1.30;;;20.40;74.10;;;;;;5051908;28;19921;-81
2022/05/16 00:59:24;;;;;;;2.17;1.30;;;20.40;74.10;;;;;;5040622;28;20041;-80
2022/05/16 01:04:49;;;;;;;2.75;1.30;;;20.30;74.00;;;;;;5040002;28;20048;-80
2022/05/16 01:07:22;;;;;;;2.15;1.15;;;20.40;74.10;;;;;;5058656;28;20129;-80
2022/05/16 01:09:49;;;;;;;2.30;1.13;;;20.40;74.00;;;;;;5059429;28;20044;-80
2022/05/16 01:12:18;;;;;;;2.25;1.10;;;20.30;74.00;;;;;;5055591;28;20033;-80
2022/05/16 01:14:51;;;;;;;3.45;1.45;;;20.30;74.00;;;;;;5047943;28;20049;-80
2022/05/16 01:17:19;;;;;;;3.35;1.35;;;20.40;74.20;;;;;;5040487;28;20051;-81
2022/05/16 01:19:47;;;;;;;2.35;1.20;;;20.30;74.00;;;;;;5040481;28;20464;-80
2022/05/16 01:22:24;;;;;;;2.70;1.27;;;20.30;74.00;;;;;;5037193;28;20060;-79
2022/05/16 01:24:53;;;;;;;2.72;1.30;;;20.40;74.10;;;;;;5039494;28;20045;-80
2022/05/16 01:27:20;;;;;;;2.95;1.27;;;20.30;73.90;;;;;;5037117;28;20045;-81
2022/05/16 01:29:48;;;;;;;2.05;1.15;;;20.30;74.00;;;;;;5035823;28;20073;-80
2022/05/16 01:32:15;;;;;;;2.33;1.00;;;20.30;73.90;;;;;;5032881;28;20048;-81
2022/05/16 01:34:43;;;;;;;3.67;1.10;;;20.30;73.90;;;;;;5033992;28;20140;-80
2022/05/16 01:37:10;;;;;;;1.90;1.02;;;20.30;73.90;;;;;;5034299;28;20060;-81
2022/05/16 01:39:38;;;;;;;3.15;1.30;;;20.30;73.80;;;;;;5050692;28;20052;-81
2022/05/16 01:42:06;;;;;;;2.63;1.33;;;20.30;73.90;;;;;;5031899;28;20295;-81
2022/05/16 01:44:33;;;;;;;2.97;1.30;;;20.30;73.80;;;;;;5032610;28;20064;-81
2022/05/16 01:47:00;;;;;;;3.38;1.20;;;20.30;73.80;;;;;;5035819;28;20104;-81
2022/05/16 01:49:27;;;;;;;2.35;1.25;;;20.30;73.80;;;;;;5031983;28;20052;-80
2022/05/16 01:51:54;;;;;;;2.22;1.13;;;20.30;73.80;;;;;;5035882;28;20045;-81
2022/05/16 01:54:21;;;;;;;2.13;1.20;;;20.30;73.80;;;;;;5032649;28;20094;-81
2022/05/16 01:56:49;;;;;;;2.05;1.20;;;20.30;73.80;;;;;;5032152;28;20044;-81
2022/05/16 01:59:16;;;;;;;2.30;1.10;;;20.30;73.80;;;;;;5035146;28;20123;-81
2022/05/16 02:01:43;;;;;;;1.55;1.02;;;20.30;73.80;;;;;;5030270;28;20041;-81
2022/05/16 02:04:10;;;;;;;2.42;1.05;;;20.30;73.80;;;;;;5036684;28;20127;-81
2022/05/16 02:06:37;;;;;;;3.30;1.15;;;20.30;73.80;;;;;;5047476;28;20047;-80
2022/05/16 02:09:04;;;;;;;2.67;1.20;;;20.30;73.80;;;;;;5056644;28;20037;-81
2022/05/16 02:11:31;;;;;;;2.38;1.33;;;20.30;73.70;;;;;;5053335;28;20138;-81
2022/05/16 02:14:00;;;;;;;1.63;1.10;;;20.30;73.80;;;;;;5053071;28;20127;-80
2022/05/16 02:16:27;;;;;;;1.48;1.05;;;20.30;73.80;;;;;;5053697;28;20054;-80
2022/05/16 02:18:54;;;;;;;2.20;1.13;;;20.30;73.70;;;;;;5054677;28;20068;-81
2022/05/16 02:26:51;;;;;;;2.15;1.13;;;20.30;73.70;;;;;;5035043;28;20076;-80
2022/05/16 02:29:20;;;;;;;1.58;0.90;;;20.30;73.70;;;;;;5035197;28;20049;-80
2022/05/16 02:31:47;;;;;;;3.42;1.10;;;20.20;73.50;;;;;;5047907;28;20045;-80
2022/05/16 02:34:15;;;;;;;1.90;1.30;;;20.30;73.60;;;;;;5052677;28;20044;-81
2022/05/16 02:36:42;;;;;;;3.00;1.10;;;20.30;73.50;;;;;;5036844;28;20049;-81
2022/05/16 02:39:10;;;;;;;2.83;1.33;;;20.20;73.40;;;;;;5053681;28;20036;-81
2022/05/16 02:41:37;;;;;;;2.35;1.23;;;20.30;73.60;;;;;;5039234;28;20056;-81
2022/05/16 02:44:04;;;;;;;1.65;0.90;;;20.30;73.50;;;;;;5067717;28;20117;-80
2022/05/16 02:46:33;;;;;;;4.68;1.48;;;20.20;73.50;;;;;;5058063;28;20127;-81
2022/05/16 02:48:59;;;;;;;3.00;0.90;;;20.20;73.30;;;;;;5053770;28;20090;-80
2022/05/16 02:51:26;;;;;;;2.15;1.10;;;20.20;73.30;;;;;;5055009;28;20040;-81
2022/05/16 02:53:53;;;;;;;2.75;1.27;;;20.20;73.40;;;;;;5050041;28;20040;-80
2022/05/16 02:56:22;;;;;;;2.75;1.10;;;20.20;73.30;;;;;;5057283;28;20048;-81
2022/05/16 02:58:49;;;;;;;2.03;1.13;;;20.20;73.40;;;;;;5044830;28;20044;-81
2022/05/16 03:01:16;;;;;;;2.17;1.15;;;20.20;73.30;;;;;;5034837;28;20039;-81
2022/05/16 03:03:44;;;;;;;2.00;1.20;;;20.20;73.30;;;;;;5053598;28;20044;-81
2022/05/16 03:06:12;;;;;;;3.72;1.20;;;20.20;73.30;;;;;;5064755;28;20127;-81
2022/05/16 03:08:39;;;;;;;2.30;1.15;;;20.20;73.20;;;;;;5054615;28;20525;-81
2022/05/16 03:11:08;;;;;;;2.47;1.33;;;20.20;73.10;;;;;;5046823;28;20632;-81
2022/05/16 03:13:36;;;;;;;1.95;1.17;;;20.20;73.20;;;;;;5059051;28;20558;-80
2022/05/16 03:16:04;;;;;;;1.92;1.10;;;20.20;73.30;;;;;;5058699;28;20043;-81
2022/05/16 03:18:32;;;;;;;2.53;1.08;;;20.20;73.10;;;;;;5059790;28;20048;-81
2022/05/16 03:21:01;;;;;;;2.58;1.13;;;20.20;73.20;;;;;;5061949;28;20044;-80
2022/05/16 03:23:29;;;;;;;1.88;1.10;;;20.20;73.10;;;;;;5061510;28;20047;-81
2022/05/16 03:25:56;;;;;;;2.30;1.10;;;20.20;73.10;;;;;;5063110;28;20037;-81
2022/05/16 03:28:23;;;;;;;2.78;1.10;;;20.20;73.10;;;;;;5060136;28;20067;-81
2022/05/16 03:30:50;;;;;;;1.73;1.10;;;20.20;73.10;;;;;;5056387;28;20383;-81
2022/05/16 03:33:17;;;;;;;2.00;1.10;;;20.20;73.10;;;;;;5056121;28;20046;-81
2022/05/16 03:35:44;;;;;;;2.15;1.08;;;20.20;73.10;;;;;;5057985;28;20543;-81
2022/05/16 03:40:41;;;;;;;1.65;1.08;;;20.20;73.00;;;;;;5065501;28;20055;-81
2022/05/16 03:40:59;;;;;;;2.03;1.00;;;20.20;72.90;;;;;;5060176;28;20108;-80
2022/05/16 03:43:26;;;;;;;2.47;1.10;;;20.20;72.80;;;;;;5064735;28;20044;-81
2022/05/16 03:45:53;;;;;;;1.73;1.02;;;20.20;72.90;;;;;;5034917;28;20047;-81
2022/05/16 03:48:20;;;;;;;2.30;1.20;;;20.20;72.90;;;;;;5061920;28;20049;-81
2022/05/16 03:50:47;;;;;;;2.45;1.23;;;20.20;73.00;;;;;;5053293;28;20045;-81
2022/05/16 03:53:15;;;;;;;1.80;1.10;;;20.20;72.90;;;;;;5055502;28;20068;-81
2022/05/16 03:55:42;;;;;;;3.17;1.00;;;20.20;73.00;;;;;;5038067;28;20072;-81
2022/05/16 03:58:09;;;;;;;1.90;1.02;;;20.10;73.00;;;;;;5028497;28;20055;-81
2022/05/16 04:00:36;;;;;;;2.17;1.10;;;20.20;73.00;;;;;;5048045;28;20120;-81
2022/05/16 04:03:03;;;;;;;1.90;1.00;;;20.20;72.90;;;;;;5029189;28;20051;-81
2022/05/16 04:05:30;;;;;;;1.98;1.05;;;20.20;73.10;;;;;;5025936;28;21027;-80
2022/05/16 04:07:58;;;;;;;2.25;1.10;;;20.20;72.90;;;;;;5033414;28;20055;-81
2022/05/16 04:10:26;;;;;;;2.15;1.08;;;20.20;73.00;;;;;;5035864;28;20071;-80
2022/05/16 04:12:54;;;;;;;3.35;1.20;;;20.20;72.90;;;;;;5030194;28;20042;-81
2022/05/16 04:15:22;;;;;;;2.83;0.93;;;20.20;72.90;;;;;;5032580;28;20042;-81
2022/05/16 04:17:49;;;;;;;2.05;1.30;;;20.20;72.90;;;;;;5038728;28;20069;-81
2022/05/16 04:20:18;;;;;;;2.17;1.00;;;20.10;72.80;;;;;;5037284;28;20037;-81
2022/05/16 04:22:45;;;;;;;1.77;1.00;;;20.20;72.90;;;;;;5027352;28;20051;-81
2022/05/16 04:25:16;;;;;;;2.10;1.30;;;20.20;72.90;;;;;;5035826;28;20091;-81
2022/05/16 04:27:44;;;;;;;1.60;1.10;;;20.20;72.90;;;;;;5035251;28;20051;-81
2022/05/16 04:30:12;;;;;;;1.67;1.00;;;20.20;72.90;;;;;;5037069;28;20052;-81
2022/05/16 04:32:40;;;;;;;1.70;1.00;;;20.20;72.70;;;;;;5036498;28;20045;-80
2022/05/16 04:35:08;;;;;;;2.03;1.10;;;20.20;73.50;;;;;;5036620;28;20045;-80
2022/05/16 04:37:35;;;;;;;2.13;1.23;;;20.10;72.50;;;;;;5035969;28;20045;-80
2022/05/16 04:40:04;;;;;;;2.40;1.10;;;20.10;72.20;;;;;;5039405;28;20048;-80
2022/05/16 04:42:43;;;;;;;3.95;1.40;;;20.10;72.00;;;;;;5035925;28;20112;-80
2022/05/16 04:45:17;;;;;;;8.75;1.80;;;20.10;71.70;;;;;;5034206;28;20046;-80
2022/05/16 04:47:45;;;;;;;2.53;1.42;;;20.10;71.30;;;;;;5037725;28;20048;-80
2022/05/16 04:50:14;;;;;;;2.50;1.50;;;20.10;71.70;;;;;;5039254;28;20043;-79
2022/05/16 04:52:41;;;;;;;3.67;1.98;;;20.10;71.50;;;;;;5032721;28;20041;-79
2022/05/16 04:55:10;;;;;;;5.80;1.80;;;20.10;71.50;;;;;;5030588;28;20510;-80
2022/05/16 04:57:37;;;;;;;3.05;1.50;;;20.10;71.30;;;;;;5039975;28;20041;-79
2022/05/16 05:00:06;;;;;;;3.22;1.45;;;20.10;71.30;;;;;;5044775;28;20122;-79
2022/05/16 05:02:34;;;;;;;3.35;1.60;;;20.10;71.20;;;;;;5036891;28;20487;-79
2022/05/16 05:05:03;;;;;;;6.13;1.70;;;20.00;71.10;;;;;;5042408;28;20047;-79
2022/05/16 05:07:30;;;;;;;4.25;1.50;;;20.00;71.00;;;;;;5049074;28;20060;-79
2022/05/16 05:15:28;;;;;;;3.85;1.80;;;20.10;70.80;;;;;;5038819;28;20037;-77
2022/05/16 05:17:56;;;;;;;3.47;1.60;;;20.00;70.70;;;;;;5086705;28;20044;-77
2022/05/16 05:20:23;;;;;;;4.47;1.83;;;20.10;70.60;;;;;;5085748;28;20025;-78
2022/05/16 05:22:50;;;;;;;2.78;1.60;;;20.00;70.60;;;;;;5086022;28;20067;-78
2022/05/16 05:25:22;;;;;;;6.22;1.92;;;20.00;70.50;;;;;;5052161;28;20073;-78
2022/05/16 05:27:49;;;;;;;;;;;20.00;70.40;;;;;;5066140;28;20078;-78
2022/05/16 05:30:23;;;;;;;4.80;1.63;;;20.00;70.60;;;;;;5068515;28;19928;-78
2022/05/16 05:32:49;;;;;;;3.95;1.65;;;20.00;70.60;;;;;;5080973;28;20032;-78
2022/05/16 05:35:18;;;;;;;4.97;2.08;;;20.00;70.60;;;;;;5065342;28;20295;-78
2022/05/16 05:37:45;;;;;;;4.30;1.67;;;20.00;70.60;;;;;;5059576;28;20044;-77
2022/05/16 05:40:13;;;;;;;4.57;1.80;;;20.10;70.70;;;;;;5034952;28;20049;-78
2022/05/16 05:42:41;;;;;;;4.82;1.70;;;20.10;70.70;;;;;;5049017;28;20041;-79
2022/05/16 05:45:10;;;;;;;4.45;1.73;;;20.00;70.50;;;;;;5052771;28;20037;-79
2022/05/16 05:47:37;;;;;;;3.47;1.58;;;20.10;70.60;;;;;;5040240;28;20041;-79
2022/05/16 05:50:05;;;;;;;4.15;1.50;;;20.10;70.60;;;;;;5053621;28;20049;-79
2022/05/16 05:52:34;;;;;;;5.05;1.52;;;20.00;70.40;;;;;;5051053;28;20048;-79
2022/05/16 05:55:00;;;;;;;4.22;1.60;;;20.10;71.30;;;;;;5055207;28;20048;-79
2022/05/16 05:57:28;;;;;;;3.80;1.60;;;20.10;70.40;;;;;;5039273;28;20048;-80
2022/05/16 05:59:56;;;;;;;4.32;2.00;;;20.10;70.50;;;;;;5056510;28;20041;-78
2022/05/16 06:02:24;;;;;;;6.57;1.63;;;20.00;70.30;;;;;;5053631;28;20067;-81
2022/05/16 06:04:52;;;;;;;3.75;1.80;;;20.10;70.40;;;;;;5054382;28;20078;-79
2022/05/16 06:07:19;;;;;;;5.55;1.80;;;20.10;70.30;;;;;;5051116;28;20044;-80
2022/05/16 06:09:47;;;;;;;6.75;1.80;;;20.10;70.20;;;;;;5042047;28;20043;-78
2022/05/16 06:12:16;;;;;;;4.07;1.67;;;20.10;70.20;;;;;;5058117;28;20097;-79
2022/05/16 06:14:48;;;;;;;6.20;1.88;;;20.10;70.20;;;;;;5058419;28;20044;-80
2022/05/16 06:17:15;;;;;;;8.63;1.83;;;20.10;70.20;;;;;;5058417;28;20064;-79
2022/05/16 06:19:42;;;;;;;7.05;1.73;;;20.10;70.20;;;;;;5056986;28;20111;-80
2022/05/16 06:22:09;;;;;;;6.32;1.80;;;20.10;70.20;;;;;;5057602;28;20131;-79
2022/05/16 06:27:22;;;;;;;8.07;1.80;;;20.10;70.20;;;;;;5058725;28;20110;-78
2022/05/16 06:29:49;;;;;;;12.40;2.45;;;20.10;70.40;;;;;;5038328;28;20076;-79
2022/05/16 06:32:16;;;;;;;7.75;2.20;;;20.10;70.60;;;;;;5055649;28;20095;-79
2022/05/16 06:34:43;;;;;;;10.43;2.42;;;20.10;70.90;;;;;;5057556;28;20048;-78
2022/05/16 06:37:10;;;;;;;9.60;2.40;;;20.10;71.30;;;;;;5050577;28;20040;-79
2022/05/16 06:39:36;;;;;;;9.35;2.63;;;20.10;71.50;;;;;;5060109;28;20044;-79
2022/05/16 06:42:04;;;;;;;9.70;2.67;;;20.10;71.70;;;;;;5052631;28;20212;-79
2022/05/16 06:44:32;;;;;;;13.10;2.53;;;20.10;71.90;;;;;;5059404;28;20040;-78
2022/05/16 06:46:59;;;;;;;10.93;2.65;;;20.10;72.70;;;;;;5040875;28;20090;-78
2022/05/16 06:49:26;;;;;;;8.75;2.83;;;20.00;73.50;;;;;;5040007;28;20593;-79
2022/05/16 06:51:53;;;;;;;8.35;2.55;;;20.10;73.90;;;;;;5053348;28;20067;-78
2022/05/16 06:54:20;;;;;;;13.73;2.90;;;20.10;74.40;;;;;;5062231;28;20052;-78
2022/05/16 06:56:47;;;;;;;11.23;2.40;;;20.10;74.30;;;;;;5061320;28;20043;-78
2022/05/16 06:59:14;;;;;;;7.50;2.78;;;20.10;73.70;;;;;;5061930;28;20127;-78
2022/05/16 07:01:42;;;;;;;9.88;2.30;;;20.10;74.40;;;;;;5055125;28;20048;-78
2022/05/16 07:04:09;;;;;;;8.30;2.50;;;20.10;73.40;;;;;;5042054;28;20076;-78
2022/05/16 07:06:36;;;;;;;7.15;2.40;;;20.10;73.10;;;;;;5054726;28;20064;-79
2022/05/16 07:09:05;;;;;;;7.35;2.42;;;20.10;73.40;;;;;;5056536;28;20038;-78
2022/05/16 07:11:33;;;;;;;7.43;2.40;;;20.10;74.50;;;;;;5057606;28;20099;-79
2022/05/16 07:14:00;;;;;;;10.23;2.38;;;20.10;73.80;;;;;;5060142;28;20076;-78
2022/05/16 07:16:27;;;;;;;7.57;2.38;;;20.10;73.70;;;;;;5044284;28;20140;-77
2022/05/16 07:18:55;;;;;;;7.20;2.17;;;20.20;74.40;;;;;;5062078;28;20051;-78
2022/05/16 07:21:22;;;;;;;6.40;2.25;;;20.20;75.00;;;;;;5077575;28;20047;-79
2022/05/16 07:23:50;;;;;;;7.45;2.50;;;20.20;75.00;;;;;;5080089;28;20163;-77
2022/05/16 07:29:01;;;;;;;9.02;2.55;;;20.10;74.10;;;;;;5064790;28;20052;-77
2022/05/16 07:31:28;;;;;;;4.93;1.98;;;20.20;74.30;;;;;;5046480;28;20048;-78
2022/05/16 07:33:58;;;;;;;8.25;2.22;;;20.20;74.40;;;;;;5043725;28;20048;-78
2022/05/16 07:36:25;;;;;;;19.90;2.75;;;20.20;76.30;;;;;;5059757;28;20041;-78
2022/05/16 07:38:53;;;;;;;18.05;2.53;;;20.30;76.40;;;;;;5059581;28;20049;-78
2022/05/16 07:41:20;;;;;;;7.35;2.10;;;20.30;75.70;;;;;;5061517;28;20513;-78
2022/05/16 07:43:47;;;;;;;7.68;2.00;;;20.40;75.80;;;;;;5041785;28;20045;-80
2022/05/16 07:46:14;;;;;;;6.97;2.13;;;20.40;75.30;;;;;;5059817;28;20056;-77
2022/05/16 07:48:42;;;;;;;9.30;2.05;;;20.30;74.90;;;;;;5061547;28;20127;-78
2022/05/16 07:51:10;;;;;;;7.82;2.15;;;20.30;74.60;;;;;;5058236;28;20059;-78
2022/05/16 07:53:37;;;;;;;7.85;2.00;;;20.30;74.80;;;;;;5045533;28;20043;-78
2022/05/16 07:56:05;;;;;;;10.05;2.20;;;20.30;75.80;;;;;;5055348;28;20040;-77
2022/05/16 07:58:32;;;;;;;7.18;1.88;;;20.30;75.00;;;;;;5061730;28;20032;-79
2022/05/16 08:01:00;;;;;;;9.63;2.00;;;20.30;75.00;;;;;;5045001;28;20048;-77
2022/05/16 08:03:29;;;;;;;4.72;1.70;;;20.30;75.10;;;;;;5039359;28;20072;-78
2022/05/16 08:05:57;;;;;;;7.85;1.90;;;20.30;75.40;;;;;;5058899;28;20086;-78
2022/05/16 08:11:11;;;;;;;6.70;1.98;;;20.30;75.50;;;;;;5061235;28;20041;-78
2022/05/16 08:13:39;;;;;;;8.25;1.98;;;20.30;75.40;;;;;;5065079;28;20036;-78
2022/05/16 08:16:08;;;;;;;10.05;2.22;;;20.30;75.20;;;;;;5064727;28;20044;-77
2022/05/16 08:18:35;;;;;;;8.45;2.00;;;20.30;75.30;;;;;;5071652;28;20032;-79
2022/05/16 08:21:02;;;;;;;11.70;2.03;;;20.30;75.10;;;;;;5064876;28;20205;-77
2022/05/16 08:23:31;;;;;;;8.05;1.80;;;20.30;75.20;;;;;;5054881;28;20037;-78
2022/05/16 08:26:01;;;;;;;9.15;1.85;;;20.30;75.20;;;;;;5065091;28;20056;-78
2022/05/16 08:28:28;;;;;;;6.90;2.05;;;20.30;75.00;;;;;;5061448;28;20124;-78
2022/05/16 08:30:55;;;;;;;9.18;1.90;;;20.30;75.00;;;;;;5057782;28;20407;-79
2022/05/16 08:33:22;;;;;;;8.50;2.15;;;20.30;74.90;;;;;;5057439;28;20045;-79
2022/05/16 08:39:52;;;;;;;7.57;1.90;;;20.30;74.90;;;;;;5056066;28;20045;-78
2022/05/16 08:41:29;;;;;;;8.07;2.10;;;20.30;74.80;;;;;;5059162;28;20433;-79
2022/05/16 08:44:07;;;;;;;5.22;1.75;;;20.30;74.70;;;;;;5055620;28;20037;-78
2022/05/16 08:46:36;;;;;;;7.10;1.85;;;20.30;74.40;;;;;;5049274;28;20457;-78
2022/05/16 08:49:15;;;;;;;4.57;1.77;;;20.30;74.40;;;;;;5061907;28;20048;-79
2022/05/16 08:51:45;;;;;;;4.18;2.17;;;20.30;74.40;;;;;;5061076;28;20098;-79
2022/05/16 08:54:28;;;;;;;3.53;1.60;;;20.40;74.70;;;;;;5060260;28;20049;-78
2022/05/16 08:56:59;;;;;;;5.40;1.80;;;20.40;74.50;;;;;;5051442;28;20048;-79
2022/05/16 08:59:29;;;;;;;6.38;1.70;;;20.40;74.50;;;;;;5060652;28;20484;-78
2022/05/16 09:02:00;;;;;;;5.40;1.70;;;20.40;74.50;;;;;;5052154;28;20036;-79
2022/05/16 09:04:32;;;;;;;6.03;1.70;;;20.40;74.40;;;;;;5055111;28;20046;-77
2022/05/16 09:07:01;;;;;;;;;;;20.40;75.20;;;;;;5059144;28;20045;-77
2022/05/16 09:09:42;;;;;;;5.50;1.60;;;20.40;74.30;;;;;;5054794;28;20003;-77
2022/05/16 09:12:17;;;;;;;11.15;2.33;;;20.40;74.30;;;;;;5051962;28;20080;-77
2022/05/16 09:14:57;;;;;;;11.90;2.40;;;20.50;76.10;;;;;;5054493;28;20147;-77
2022/05/16 09:17:33;;;;;;;6.60;1.80;;;20.50;77.20;;;;;;5058256;28;20044;-78
2022/05/16 09:20:14;;;;;;;7.72;2.30;;;20.50;76.60;;;;;;5058532;28;20040;-77
2022/05/16 09:22:47;;;;;;;7.47;1.90;;;20.50;77.40;;;;;;5065495;28;20044;-78
2022/05/16 09:25:21;;;;;;;7.20;2.40;;;20.50;76.90;;;;;;5083518;28;20092;-77
2022/05/16 09:30:40;;;;;;;7.75;2.08;;;20.60;77.30;;;;;;5042944;28;20087;-77
2022/05/16 09:33:14;;;;;;;8.90;2.30;;;20.60;80.70;;;;;;5052371;28;20101;-78
2022/05/16 09:35:50;;;;;;;8.43;1.95;;;20.60;79.80;;;;;;5058069;28;20056;-78
2022/05/16 09:38:19;;;;;;;10.25;2.03;;;20.70;79.50;;;;;;5058584;28;20060;-78
2022/05/16 09:41:02;;;;;;;6.28;1.80;;;20.60;79.00;;;;;;5060563;28;20083;-80
2022/05/16 09:43:33;;;;;;;8.27;1.80;;;20.60;80.70;;;;;;5055240;28;20044;-80
2022/05/16 09:46:02;;;;;;;6.63;1.90;;;20.70;79.20;;;;;;5041671;28;20047;-77
2022/05/16 09:48:29;;;;;;;7.93;2.03;;;20.70;79.10;;;;;;5056303;28;20037;-78
2022/05/16 09:50:58;;;;;;;7.30;2.00;;;20.70;78.80;;;;;;5053706;28;20051;-77
2022/05/16 09:53:32;;;;;;;6.80;1.70;;;20.70;78.70;;;;;;5055593;28;20049;-77
2022/05/16 09:56:03;;;;;;;5.20;1.90;;;20.60;78.20;;;;;;5039389;28;20059;-77
2022/05/16 09:58:37;;;;;;;4.63;1.40;;;20.70;78.30;;;;;;5030335;28;20045;-78
2022/05/16 10:01:06;;;;;;;4.10;1.70;;;20.70;78.00;;;;;;5058768;28;20051;-79
2022/05/16 10:03:35;;;;;;;4.45;1.83;;;20.60;77.90;;;;;;5056460;28;20082;-78
2022/05/16 10:06:06;;;;;;;4.97;1.75;;;20.70;78.40;;;;;;5053572;28;20052;-78
2022/05/16 10:08:40;;;;;;;6.47;1.80;;;20.70;78.50;;;;;;5055535;28;20127;-78
2022/05/16 10:11:13;;;;;;;6.80;1.80;;;20.70;78.10;;;;;;5058006;28;20068;-77
2022/05/16 10:13:40;;;;;;;7.28;1.85;;;20.70;78.10;;;;;;5056256;28;20037;-78
2022/05/16 10:16:10;;;;;;;3.90;1.35;;;20.70;78.10;;;;;;5056073;28;20373;-77
2022/05/16 10:18:43;;;;;;;5.32;1.42;;;20.70;77.90;;;;;;5039948;28;20040;-77
2022/05/16 10:21:18;;;;;;;6.43;1.55;;;20.70;77.90;;;;;;5040040;28;20064;-77
2022/05/16 10:23:46;;;;;;;4.32;1.38;;;20.70;77.70;;;;;;5054856;28;20044;-77
2022/05/16 10:26:18;;;;;;;5.28;1.52;;;20.70;77.70;;;;;;5041989;28;20097;-78
2022/05/16 10:28:49;;;;;;;5.90;1.60;;;20.70;77.60;;;;;;5055033;28;20033;-77
2022/05/16 10:34:08;;;;;;;5.63;1.92;;;20.80;80.50;;;;;;5060667;28;20090;-76
2022/05/16 10:36:37;;;;;;;5.72;1.75;;;20.80;82.50;;;;;;5058163;28;20145;-79
2022/05/16 10:39:06;;;;;;;6.60;2.10;;;20.90;80.60;;;;;;5050292;28;20044;-79
2022/05/16 10:41:40;;;;;;;4.68;1.60;;;20.90;80.80;;;;;;5060269;28;20040;-79
2022/05/16 10:44:17;;;;;;;5.38;1.55;;;20.80;80.70;;;;;;5032002;28;20623;-78
2022/05/16 10:46:50;;;;;;;9.13;1.50;;;20.90;80.10;;;;;;5054471;28;20086;-79
2022/05/16 10:49:21;;;;;;;5.18;1.70;;;20.80;79.80;;;;;;5059339;28;20040;-78
2022/05/16 10:51:54;;;;;;;7.15;1.48;;;20.80;79.50;;;;;;5059131;28;20129;-79
2022/05/16 10:54:23;;;;;;;3.45;1.40;;;20.90;79.60;;;;;;5022534;28;20068;-79
2022/05/16 10:57:21;;;;;;;6.32;1.48;;;20.90;79.50;;;;;;5058162;28;20052;-78
2022/05/16 11:00:00;;;;;;;4.03;1.40;;;20.80;79.20;;;;;;5059791;28;20045;-78
2022/05/16 11:02:39;;;;;;;3.30;1.55;;;20.90;79.10;;;;;;5032023;28;20075;-79
2022/05/16 11:05:17;;;;;;;8.75;1.73;;;20.80;78.90;;;;;;5058493;28;20048;-80
2022/05/16 11:07:52;;;;;;;5.82;1.60;;;20.90;79.30;;;;;;5058099;28;20100;-78
2022/05/16 11:10:25;;;;;;;3.78;1.58;;;20.90;78.90;;;;;;5060471;28;20054;-79
2022/05/16 11:13:09;;;;;;;5.57;1.40;;;20.90;78.80;;;;;;5060067;28;20047;-78
2022/05/16 11:15:40;;;;;;;6.47;1.50;;;20.90;78.70;;;;;;5060685;28;20127;-79
2022/05/16 11:18:12;;;;;;;;;;;20.80;78.70;;;;;;5051891;28;20135;-80
2022/05/16 11:20:43;;;;;;;9.45;1.63;;;20.90;78.90;;;;;;5060457;28;19924;-77
2022/05/16 11:23:20;;;;;;;5.47;1.60;;;21.00;80.60;;;;;;5063020;28;20044;-78
2022/05/16 11:25:52;;;;;;;11.38;1.60;;;21.10;80.50;;;;;;5059377;28;20044;-76
2022/05/16 11:28:31;;;;;;;7.78;1.85;;;21.10;80.50;;;;;;5074103;28;20048;-80
2022/05/16 11:31:03;;;;;;;9.85;1.60;;;21.20;80.80;;;;;;5073592;28;20056;-78
2022/05/16 11:33:38;;;;;;;6.97;1.65;;;21.20;80.60;;;;;;5063334;28;20036;-78
2022/05/16 11:36:10;;;;;;;9.15;1.90;;;21.20;80.40;;;;;;5061775;28;20105;-79
2022/05/16 11:38:50;;;;;;;4.43;1.50;;;21.20;80.20;;;;;;5061112;28;20064;-81
